createdAt,value
2023-02-16T00:01:21.163Z,20.30
2023-02-16T00:03:49.226Z,20.47
2023-02-16T00:06:18.459Z,21.77
2023-02-16T00:08:47.799Z,23.87
2023-02-16T00:11:36.393Z,22.97
2023-02-16T00:14:06.417Z,20.00
2023-02-16T00:16:34.155Z,20.67
2023-02-16T00:19:01.845Z,19.73
2023-02-16T00:21:31.372Z,23.97
2023-02-16T00:23:59.079Z,21.77
2023-02-16T00:26:28.764Z,23.50
2023-02-16T00:28:59.139Z,21.07
2023-02-16T00:31:29.220Z,20.37
2023-02-16T00:33:57.068Z,25.23
2023-02-16T00:36:25.010Z,23.53
2023-02-16T00:38:54.324Z,26.97
2023-02-16T00:41:51.219Z,23.83
2023-02-16T00:44:21.990Z,23.00
2023-02-16T00:46:49.781Z,23.83
2023-02-16T00:49:18.683Z,24.30
2023-02-16T00:51:46.676Z,24.60
2023-02-16T00:54:15.773Z,25.60
2023-02-16T00:56:44.050Z,25.73
2023-02-16T00:59:17.679Z,27.53
2023-02-16T01:01:45.664Z,26.10
2023-02-16T01:04:20.180Z,27.87
2023-02-16T01:07:05.508Z,25.97
2023-02-16T01:09:52.611Z,26.87
2023-02-16T01:12:22.472Z,27.17
2023-02-16T01:14:53.800Z,25.00
2023-02-16T01:17:22.048Z,26.77
2023-02-16T01:19:49.776Z,27.47
2023-02-16T01:22:18.163Z,26.90
2023-02-16T01:24:47.312Z,29.50
2023-02-16T01:27:15.140Z,26.37
2023-02-16T01:29:42.870Z,29.63
2023-02-16T01:32:13.062Z,26.67
2023-02-16T01:34:41.184Z,31.67
2023-02-16T01:37:15.404Z,31.50
2023-02-16T01:39:43.153Z,27.27
2023-02-16T01:42:20.919Z,28.77
2023-02-16T01:44:52.299Z,31.67
2023-02-16T01:47:33.417Z,29.87
2023-02-16T01:50:03.562Z,31.37
2023-02-16T01:52:35.586Z,28.53
2023-02-16T01:55:08.920Z,30.50
2023-02-16T01:57:45.978Z,30.37
2023-02-16T02:00:18.028Z,29.30
2023-02-16T02:02:49.255Z,26.73
2023-02-16T02:05:37.152Z,27.97
2023-02-16T02:08:12.466Z,30.17
2023-02-16T02:10:51.343Z,32.47
2023-02-16T02:13:23.530Z,34.07
2023-02-16T02:15:51.351Z,30.53
2023-02-16T02:18:19.314Z,28.87
2023-02-16T02:21:21.111Z,27.30
2023-02-16T02:24:16.457Z,34.23
2023-02-16T02:27:09.344Z,31.67
2023-02-16T02:29:57.692Z,28.87
2023-02-16T02:32:34.312Z,33.87
2023-02-16T02:35:12.251Z,31.70
2023-02-16T02:37:47.255Z,35.40
2023-02-16T02:40:23.017Z,34.17
2023-02-16T02:43:03.221Z,37.60
2023-02-16T02:45:34.918Z,35.53
2023-02-16T02:48:02.671Z,36.33
2023-02-16T02:51:02.749Z,36.90
2023-02-16T02:53:31.292Z,34.67
2023-02-16T02:56:18.432Z,36.20
2023-02-16T02:59:08.718Z,37.07
2023-02-16T03:01:39.197Z,35.80
2023-02-16T03:04:09.610Z,34.57
2023-02-16T03:06:40.506Z,35.80
2023-02-16T03:09:11.465Z,37.70
2023-02-16T03:11:57.268Z,37.03
2023-02-16T03:14:29.939Z,38.33
2023-02-16T03:17:17.652Z,33.97
2023-02-16T03:20:06.783Z,37.10
2023-02-16T03:22:53.794Z,39.37
2023-02-16T03:25:41.412Z,34.73
2023-02-16T03:28:27.656Z,35.37
2023-02-16T03:30:57.492Z,35.20
2023-02-16T03:33:26.439Z,36.10
2023-02-16T03:35:55.326Z,34.83
2023-02-16T03:38:23.704Z,36.70
2023-02-16T03:40:53.484Z,36.40
2023-02-16T03:43:25.576Z,40.63
2023-02-16T03:45:53.760Z,39.73
2023-02-16T03:48:23.205Z,35.80
2023-02-16T03:50:51.059Z,36.77
2023-02-16T03:53:19.116Z,37.80
2023-02-16T03:55:48.867Z,36.70
2023-02-16T03:58:18.500Z,40.97
2023-02-16T04:00:46.632Z,35.40
2023-02-16T04:03:14.594Z,40.13
2023-02-16T04:05:43.911Z,35.50
2023-02-16T04:08:12.228Z,38.13
2023-02-16T04:10:40.861Z,41.67
2023-02-16T04:13:07.796Z,36.53
2023-02-16T04:15:35.786Z,36.00
2023-02-16T04:18:03.743Z,38.67
2023-02-16T04:20:33.741Z,39.80
2023-02-16T04:23:03.513Z,37.07
2023-02-16T04:25:31.693Z,38.30
2023-02-16T04:27:59.678Z,38.13
2023-02-16T04:30:30.725Z,38.20
2023-02-16T04:32:59.346Z,36.30
2023-02-16T04:35:27.454Z,38.40
2023-02-16T04:37:55.217Z,42.20
2023-02-16T04:40:24.393Z,40.10
2023-02-16T04:42:52.453Z,37.20
2023-02-16T04:45:20.359Z,38.27
2023-02-16T04:47:48.153Z,38.70
2023-02-16T04:50:15.898Z,36.53
2023-02-16T04:52:43.648Z,35.13
2023-02-16T04:55:11.627Z,40.83
2023-02-16T04:57:41.210Z,42.07
2023-02-16T05:00:12.055Z,41.90
2023-02-16T05:02:39.778Z,42.57
2023-02-16T05:05:08.486Z,37.20
2023-02-16T05:07:36.896Z,40.63
2023-02-16T05:10:05.818Z,38.77
2023-02-16T05:12:51.221Z,43.67
2023-02-16T05:15:20.400Z,39.87
2023-02-16T05:17:48.130Z,43.90
2023-02-16T05:20:15.882Z,42.33
2023-02-16T05:22:45.541Z,42.93
2023-02-16T05:25:13.733Z,40.83
2023-02-16T05:27:41.731Z,44.00
2023-02-16T05:30:10.623Z,42.30
2023-02-16T05:32:39.732Z,47.97
2023-02-16T05:35:07.807Z,46.47
2023-02-16T05:37:42.350Z,41.50
2023-02-16T05:40:11.677Z,43.53
2023-02-16T05:42:39.386Z,44.47
2023-02-16T05:45:07.614Z,43.00
2023-02-16T05:47:35.352Z,43.40
2023-02-16T05:50:04.581Z,38.33
2023-02-16T05:52:32.383Z,47.80
2023-02-16T05:55:00.115Z,42.80
2023-02-16T05:57:28.034Z,44.67
2023-02-16T05:59:55.825Z,41.47
2023-02-16T06:02:23.667Z,43.57
2023-02-16T06:04:51.455Z,43.40
2023-02-16T06:07:21.996Z,40.30
2023-02-16T06:09:49.742Z,42.67
2023-02-16T06:12:17.477Z,45.53
2023-02-16T06:14:45.183Z,41.40
2023-02-16T06:17:13.069Z,43.53
2023-02-16T06:19:40.871Z,45.93
2023-02-16T06:22:08.573Z,43.13
2023-02-16T06:24:38.342Z,40.10
2023-02-16T06:27:06.441Z,38.30
2023-02-16T06:29:34.238Z,40.50
2023-02-16T06:32:02.146Z,41.70
2023-02-16T06:34:30.045Z,40.47
2023-02-16T06:36:58.311Z,42.70
2023-02-16T06:39:26.101Z,42.57
2023-02-16T06:41:55.375Z,40.17
2023-02-16T06:44:23.181Z,40.63
2023-02-16T06:46:51.097Z,42.77
2023-02-16T06:49:20.597Z,44.70
2023-02-16T06:51:49.634Z,45.30
2023-02-16T06:54:18.434Z,40.83
2023-02-16T06:56:46.798Z,44.60
2023-02-16T06:59:16.210Z,43.90
2023-02-16T07:01:45.433Z,39.57
2023-02-16T07:04:13.771Z,40.87
2023-02-16T07:06:41.867Z,39.57
2023-02-16T07:09:11.640Z,44.83
2023-02-16T07:11:40.518Z,42.30
2023-02-16T07:14:08.352Z,36.53
2023-02-16T07:16:37.466Z,40.60
2023-02-16T07:19:05.664Z,41.60
2023-02-16T07:21:33.882Z,44.93
2023-02-16T07:24:01.860Z,38.27
2023-02-16T07:26:29.627Z,41.57
2023-02-16T07:28:57.866Z,37.93
2023-02-16T07:31:26.641Z,39.13
2023-02-16T07:33:56.015Z,40.33
2023-02-16T07:36:24.010Z,40.20
2023-02-16T07:38:52.195Z,39.57
2023-02-16T07:41:20.099Z,38.23
2023-02-16T07:43:48.083Z,39.40
2023-02-16T07:46:15.890Z,36.47
2023-02-16T07:48:43.871Z,35.33
2023-02-16T07:51:12.993Z,37.80
2023-02-16T07:53:40.767Z,39.47
2023-02-16T07:56:08.525Z,39.97
2023-02-16T07:58:36.888Z,39.73
2023-02-16T08:01:09.694Z,36.20
2023-02-16T08:03:37.550Z,35.90
2023-02-16T08:06:06.088Z,34.23
2023-02-16T08:08:36.003Z,35.63
2023-02-16T08:11:10.494Z,39.83
2023-02-16T08:13:38.879Z,34.87
2023-02-16T08:16:09.699Z,34.80
2023-02-16T08:18:37.948Z,34.80
2023-02-16T08:21:13.991Z,34.90
2023-02-16T08:23:47.489Z,34.87
2023-02-16T08:26:17.141Z,33.80
2023-02-16T08:28:47.125Z,31.57
2023-02-16T08:31:15.753Z,34.00
2023-02-16T08:33:44.913Z,33.33
2023-02-16T08:36:18.948Z,34.53
2023-02-16T08:38:50.418Z,33.97
2023-02-16T08:41:18.984Z,32.57
2023-02-16T08:43:47.051Z,34.80
2023-02-16T08:46:15.182Z,35.53
2023-02-16T08:48:43.917Z,31.90
2023-02-16T08:51:15.420Z,32.23
2023-02-16T08:53:43.232Z,29.87
2023-02-16T08:56:12.532Z,32.17
2023-02-16T08:58:40.782Z,29.90
2023-02-16T09:01:09.463Z,32.33
2023-02-16T09:03:38.990Z,31.37
2023-02-16T09:06:07.448Z,37.60
2023-02-16T09:08:37.611Z,30.27
2023-02-16T09:11:07.427Z,29.73
2023-02-16T09:13:40.738Z,29.63
2023-02-16T09:16:10.887Z,32.33
2023-02-16T09:18:39.048Z,31.07
2023-02-16T09:21:10.882Z,30.17
2023-02-16T09:23:38.814Z,29.57
2023-02-16T09:26:08.144Z,30.63
2023-02-16T09:28:39.288Z,34.10
2023-02-16T09:31:11.584Z,28.53
2023-02-16T09:33:43.543Z,31.03
2023-02-16T09:36:13.777Z,29.13
2023-02-16T09:38:41.823Z,28.27
2023-02-16T09:41:17.217Z,28.40
2023-02-16T09:43:51.715Z,26.90
2023-02-16T09:46:23.456Z,29.03
2023-02-16T09:48:53.903Z,27.60
2023-02-16T09:51:33.925Z,28.73
2023-02-16T09:54:12.117Z,32.63
2023-02-16T09:56:43.651Z,27.10
2023-02-16T09:59:19.266Z,28.67
2023-02-16T10:01:53.622Z,30.13
2023-02-16T10:04:35.342Z,28.07
2023-02-16T10:07:14.973Z,30.00
2023-02-16T10:09:49.086Z,43.67
2023-02-16T10:12:21.794Z,27.83
2023-02-16T10:14:53.514Z,29.47
2023-02-16T10:17:29.860Z,28.30
2023-02-16T10:20:02.763Z,28.87
2023-02-16T10:22:36.102Z,27.37
2023-02-16T10:25:10.143Z,27.37
2023-02-16T10:27:40.818Z,27.80
2023-02-16T10:30:16.543Z,27.20
2023-02-16T10:32:56.027Z,29.57
2023-02-16T10:35:31.443Z,27.37
2023-02-16T10:38:06.048Z,27.97
2023-02-16T10:40:48.253Z,26.97
2023-02-16T10:43:20.843Z,26.13
2023-02-16T10:45:53.134Z,24.80
2023-02-16T10:48:21.991Z,28.27
2023-02-16T10:50:58.430Z,27.67
2023-02-16T10:53:40.116Z,31.83
2023-02-16T10:56:45.376Z,29.47
2023-02-16T10:59:16.766Z,29.67
2023-02-16T11:01:48.339Z,28.13
2023-02-16T11:04:36.624Z,27.17
2023-02-16T11:07:06.939Z,27.37
2023-02-16T11:09:34.778Z,30.43
2023-02-16T11:12:03.560Z,27.33
2023-02-16T11:14:32.345Z,29.90
2023-02-16T11:17:08.573Z,38.23
2023-02-16T11:19:37.619Z,36.17
2023-02-16T11:22:06.055Z,34.53
2023-02-16T11:24:36.892Z,30.30
2023-02-16T11:27:08.568Z,35.40
2023-02-16T11:29:36.285Z,32.37
2023-02-16T11:32:12.032Z,27.13
2023-02-16T11:34:44.023Z,28.23
2023-02-16T11:37:17.198Z,26.53
2023-02-16T11:39:51.329Z,26.30
2023-02-16T11:42:28.408Z,28.17
2023-02-16T11:44:58.254Z,32.33
2023-02-16T11:47:32.463Z,25.67
2023-02-16T11:50:20.228Z,28.70
2023-02-16T11:52:49.979Z,27.43
2023-02-16T11:55:24.918Z,26.67
2023-02-16T11:57:52.872Z,28.43
2023-02-16T12:00:23.855Z,27.93
2023-02-16T12:03:29.867Z,28.83
2023-02-16T12:06:12.190Z,26.87
2023-02-16T12:09:08.473Z,28.67
2023-02-16T12:11:49.368Z,28.47
2023-02-16T12:14:27.368Z,31.83
2023-02-16T12:17:04.024Z,28.63
2023-02-16T12:19:42.261Z,29.87
2023-02-16T12:22:23.006Z,29.10
2023-02-16T12:25:03.931Z,23.40
2023-02-16T12:27:39.470Z,28.43
2023-02-16T12:30:23.627Z,28.60
2023-02-16T12:33:06.392Z,28.20
2023-02-16T12:35:53.746Z,27.80
2023-02-16T12:38:32.109Z,26.20
2023-02-16T12:41:15.509Z,26.77
2023-02-16T12:43:46.708Z,25.27
2023-02-16T12:46:19.481Z,28.63
2023-02-16T12:48:51.295Z,26.07
2023-02-16T12:51:24.440Z,25.83
2023-02-16T12:54:01.145Z,25.80
2023-02-16T12:56:32.919Z,26.33
2023-02-16T12:59:16.742Z,24.57
2023-02-16T13:01:47.502Z,26.10
2023-02-16T13:04:22.698Z,24.50
2023-02-16T13:06:59.959Z,25.87
2023-02-16T13:09:37.805Z,23.70
2023-02-16T13:12:12.660Z,23.80
2023-02-16T13:14:43.891Z,23.20
2023-02-16T13:17:16.129Z,24.63
2023-02-16T13:19:46.338Z,28.63
2023-02-16T13:22:33.198Z,24.00
2023-02-16T13:25:23.035Z,24.93
2023-02-16T13:27:59.496Z,24.87
2023-02-16T13:30:52.557Z,23.33
2023-02-16T13:33:39.025Z,24.57
2023-02-16T13:36:21.461Z,24.73
2023-02-16T13:39:21.739Z,25.43
2023-02-16T13:42:17.598Z,24.50
2023-02-16T13:44:49.365Z,24.87
2023-02-16T13:47:24.527Z,25.70
2023-02-16T13:49:58.979Z,22.57
2023-02-16T13:52:34.014Z,25.53
2023-02-16T13:55:04.817Z,25.53
2023-02-16T13:58:10.424Z,25.00
2023-02-16T14:00:42.336Z,21.40
2023-02-16T14:03:13.547Z,26.00
2023-02-16T14:05:43.450Z,23.13
2023-02-16T14:08:14.981Z,23.10
2023-02-16T14:11:12.086Z,21.40
2023-02-16T14:13:50.512Z,23.30
2023-02-16T14:16:34.010Z,23.40
2023-02-16T14:19:05.991Z,23.20
2023-02-16T14:21:40.127Z,21.67
2023-02-16T14:24:16.205Z,26.07
2023-02-16T14:26:56.408Z,22.23
2023-02-16T14:29:29.160Z,23.23
2023-02-16T14:32:28.779Z,21.77
2023-02-16T14:35:02.153Z,24.67
2023-02-16T14:37:38.567Z,23.10
2023-02-16T14:40:16.754Z,21.63
2023-02-16T14:42:51.252Z,24.30
2023-02-16T14:45:38.797Z,23.40
2023-02-16T14:48:21.581Z,21.17
2023-02-16T14:51:09.661Z,24.10
2023-02-16T14:54:16.733Z,21.07
2023-02-16T14:56:48.984Z,20.13
2023-02-16T14:59:29.433Z,24.73
2023-02-16T15:01:59.517Z,22.83
2023-02-16T15:04:32.041Z,21.60
2023-02-16T15:07:03.382Z,22.40
2023-02-16T15:09:34.195Z,20.10
2023-02-16T15:12:23.356Z,22.60
2023-02-16T15:14:53.813Z,24.73
2023-02-16T15:17:31.305Z,23.17
2023-02-16T15:20:05.617Z,21.90
2023-02-16T15:22:33.655Z,23.67
2023-02-16T15:25:06.929Z,22.17
2023-02-16T15:27:40.565Z,24.60
2023-02-16T15:30:24.041Z,19.03
2023-02-16T15:32:56.133Z,21.37
2023-02-16T15:35:30.879Z,20.20
2023-02-16T15:38:20.491Z,22.20
2023-02-16T15:40:49.253Z,23.37
2023-02-16T15:43:27.993Z,22.60
2023-02-16T15:46:01.483Z,22.53
2023-02-16T15:48:32.593Z,26.20
2023-02-16T15:51:12.911Z,20.57
2023-02-16T15:53:51.539Z,21.33
2023-02-16T15:56:56.923Z,20.83
2023-02-16T15:59:35.807Z,24.40
2023-02-16T16:02:16.296Z,21.30
2023-02-16T16:04:50.090Z,22.33
2023-02-16T16:07:27.283Z,23.50
2023-02-16T16:10:16.908Z,22.17
2023-02-16T16:13:06.610Z,22.93
2023-02-16T16:15:38.141Z,20.43
2023-02-16T16:18:06.863Z,19.07
2023-02-16T16:20:58.397Z,23.43
2023-02-16T16:23:36.898Z,24.60
2023-02-16T16:26:34.837Z,21.53
2023-02-16T16:29:28.518Z,21.57
2023-02-16T16:31:57.414Z,21.87
2023-02-16T16:38:22.767Z,20.40
2023-02-16T16:40:55.281Z,22.90
2023-02-16T16:43:27.129Z,20.47
2023-02-16T16:45:58.937Z,26.40
2023-02-16T16:48:36.500Z,22.10
2023-02-16T16:51:12.732Z,23.53
2023-02-16T16:53:59.996Z,24.77
2023-02-16T16:56:30.956Z,22.83
2023-02-16T16:59:00.550Z,21.30
2023-02-16T17:01:31.644Z,22.10
2023-02-16T17:04:00.578Z,24.10
2023-02-16T17:06:29.336Z,27.87
2023-02-16T17:08:58.849Z,23.70
2023-02-16T17:11:32.136Z,27.37
2023-02-16T17:14:09.771Z,22.23
2023-02-16T17:17:01.297Z,27.23
2023-02-16T17:19:32.770Z,24.83
2023-02-16T17:22:17.185Z,23.17
2023-02-16T17:24:46.700Z,21.33
2023-02-16T17:27:15.003Z,21.07
2023-02-16T17:29:46.713Z,24.87
2023-02-16T17:32:14.878Z,23.40
2023-02-16T17:34:45.641Z,24.77
2023-02-16T17:37:19.550Z,21.10
2023-02-16T17:39:49.572Z,21.57
2023-02-16T17:42:17.733Z,22.83
2023-02-16T17:44:45.758Z,21.80
2023-02-16T17:47:16.485Z,23.83
2023-02-16T17:49:44.455Z,24.70
2023-02-16T17:52:13.237Z,20.70
2023-02-16T17:54:41.248Z,23.27
2023-02-16T17:57:11.518Z,23.30
2023-02-16T17:59:41.354Z,23.40
2023-02-16T18:02:10.968Z,21.93
2023-02-16T18:04:41.364Z,23.53
2023-02-16T18:07:12.900Z,24.87
2023-02-16T18:09:40.785Z,23.93
2023-02-16T18:12:10.189Z,26.57
2023-02-16T18:14:38.134Z,22.23
2023-02-16T18:17:07.030Z,25.67
2023-02-16T18:19:35.430Z,23.77
2023-02-16T18:22:04.952Z,25.67
2023-02-16T18:24:32.806Z,24.77
2023-02-16T18:27:00.664Z,23.70
2023-02-16T18:29:30.237Z,21.60
2023-02-16T18:31:58.597Z,26.43
2023-02-16T18:34:26.460Z,26.73
2023-02-16T18:36:56.479Z,24.53
2023-02-16T18:39:24.282Z,21.63
2023-02-16T18:41:52.294Z,29.13
2023-02-16T18:44:20.147Z,25.60
2023-02-16T18:46:49.393Z,25.30
2023-02-16T18:49:17.268Z,23.77
2023-02-16T18:51:45.348Z,27.83
2023-02-16T18:54:13.246Z,22.90
2023-02-16T18:56:41.303Z,24.73
2023-02-16T18:59:09.442Z,24.07
2023-02-16T19:01:37.666Z,27.83
2023-02-16T19:04:09.948Z,25.37
2023-02-16T19:06:37.896Z,24.67
2023-02-16T19:09:05.905Z,28.07
2023-02-16T19:11:33.828Z,27.20
2023-02-16T19:14:01.986Z,29.07
2023-02-16T19:16:29.943Z,25.13
2023-02-16T19:18:57.931Z,24.50
2023-02-16T19:21:27.583Z,26.23
2023-02-16T19:23:55.550Z,27.17
2023-02-16T19:26:23.585Z,26.33
2023-02-16T19:28:53.586Z,25.63
2023-02-16T19:31:23.846Z,24.57
2023-02-16T19:33:52.469Z,24.37
2023-02-16T19:36:20.882Z,27.50
2023-02-16T19:38:50.556Z,27.87
2023-02-16T19:41:25.380Z,25.80
2023-02-16T19:43:53.602Z,27.10
2023-02-16T19:46:22.067Z,24.20
2023-02-16T19:48:50.133Z,25.23
2023-02-16T19:51:18.312Z,28.57
2023-02-16T19:53:46.567Z,26.60
2023-02-16T19:56:17.669Z,26.93
2023-02-16T19:58:45.761Z,25.37
2023-02-16T20:01:16.054Z,25.20
2023-02-16T20:03:44.310Z,25.60
2023-02-16T20:06:18.104Z,27.77
2023-02-16T20:08:47.113Z,23.43
2023-02-16T20:11:17.554Z,28.77
2023-02-16T20:13:45.752Z,28.30
2023-02-16T20:16:14.414Z,26.23
2023-02-16T20:18:42.582Z,25.70
2023-02-16T20:21:13.467Z,29.43
2023-02-16T20:23:43.103Z,25.27
2023-02-16T20:26:13.348Z,27.57
2023-02-16T20:28:42.638Z,28.23
2023-02-16T20:33:57.795Z,30.10
2023-02-16T20:36:25.660Z,26.67
2023-02-16T20:38:53.583Z,32.43
2023-02-16T20:41:22.245Z,28.03
2023-02-16T20:43:52.008Z,28.10
2023-02-16T20:46:20.548Z,28.93
2023-02-16T20:48:50.046Z,28.43
2023-02-16T20:51:18.887Z,27.20
2023-02-16T20:53:47.083Z,28.40
2023-02-16T20:56:21.717Z,29.10
2023-02-16T20:58:52.563Z,31.57
2023-02-16T21:01:22.978Z,26.90
2023-02-16T21:03:52.363Z,25.60
2023-02-16T21:06:20.941Z,30.30
2023-02-16T21:08:49.282Z,30.33
2023-02-16T21:11:17.225Z,28.73
2023-02-16T21:13:45.291Z,28.17
2023-02-16T21:16:15.075Z,28.17
2023-02-16T21:18:43.219Z,30.97
2023-02-16T21:21:15.377Z,30.03
2023-02-16T21:23:43.615Z,28.10
2023-02-16T21:26:11.865Z,30.13
2023-02-16T21:28:39.779Z,28.63
2023-02-16T21:31:10.730Z,30.30
2023-02-16T21:33:40.208Z,28.43
2023-02-16T21:36:10.289Z,28.17
2023-02-16T21:38:39.066Z,27.20
2023-02-16T21:41:25.409Z,30.07
2023-02-16T21:44:02.049Z,29.23
2023-02-16T21:46:31.727Z,28.53
2023-02-16T21:49:00.125Z,31.20
2023-02-16T21:51:29.768Z,27.87
2023-02-16T21:53:58.334Z,29.63
2023-02-16T21:56:33.083Z,30.30
2023-02-16T21:59:01.212Z,29.03
2023-02-16T22:01:31.442Z,26.43
2023-02-16T22:04:01.848Z,30.80
2023-02-16T22:06:33.277Z,28.90
2023-02-16T22:09:01.292Z,30.87
2023-02-16T22:11:29.290Z,27.87
2023-02-16T22:13:58.886Z,30.67
2023-02-16T22:16:28.532Z,29.83
2023-02-16T22:19:04.953Z,26.87
2023-02-16T22:21:36.474Z,29.00
2023-02-16T22:24:04.430Z,25.83
2023-02-16T22:26:34.920Z,28.07
2023-02-16T22:29:03.247Z,28.30
2023-02-16T22:31:31.140Z,26.03
2023-02-16T22:34:02.149Z,33.77
2023-02-16T22:36:30.287Z,30.67
2023-02-16T22:38:58.148Z,32.70
2023-02-16T22:41:26.652Z,30.30
2023-02-16T22:43:55.541Z,29.70
2023-02-16T22:46:24.574Z,30.40
2023-02-16T22:48:54.452Z,31.43
2023-02-16T22:51:23.571Z,27.80
2023-02-16T22:53:51.574Z,29.80
2023-02-16T22:56:20.823Z,29.13
2023-02-16T22:59:01.723Z,26.47
2023-02-16T23:01:42.557Z,29.73
2023-02-16T23:04:15.611Z,32.40
2023-02-16T23:06:45.949Z,30.87
2023-02-16T23:09:20.568Z,29.70
2023-02-16T23:11:49.696Z,29.13
2023-02-16T23:14:21.287Z,30.93
2023-02-16T23:16:51.107Z,29.30
2023-02-16T23:19:21.711Z,31.07
2023-02-16T23:22:05.724Z,28.70
2023-02-16T23:24:34.125Z,30.10
2023-02-16T23:27:05.414Z,31.33
2023-02-16T23:29:35.865Z,31.30
2023-02-16T23:32:06.216Z,32.33
2023-02-16T23:34:39.799Z,29.60
2023-02-16T23:37:13.340Z,30.80
2023-02-16T23:39:42.109Z,28.50
2023-02-16T23:42:10.814Z,33.50
2023-02-16T23:44:39.143Z,35.27
2023-02-16T23:47:07.302Z,29.10
2023-02-16T23:49:59.534Z,33.03
2023-02-16T23:52:38.017Z,30.17
2023-02-16T23:55:06.765Z,36.23
2023-02-16T23:57:40.773Z,53.37
